sensor_id;sensor_type;location;lat;lon;timestamp;P1;durP1;ratioP1;P2;durP2;ratioP2
15258;SDS011;34462;51.368;12.364;2023-12-20T00:01:13;6.23;;;5.40;;
15258;SDS011;34462;51.368;12.364;2023-12-20T00:03:41;8.20;;;5.80;;
15258;SDS011;34462;51.368;12.364;2023-12-20T00:06:10;6.97;;;5.43;;
15258;SDS011;34462;51.368;12.364;2023-12-20T00:08:39;6.10;;;5.50;;
15258;SDS011;34462;51.368;12.364;2023-12-20T00:11:07;6.57;;;5.13;;
15258;SDS011;34462;51.368;12.364;2023-12-20T00:13:36;5.63;;;5.03;;
15258;SDS011;34462;51.368;12.364;2023-12-20T00:16:06;6.77;;;5.50;;
15258;SDS011;34462;51.368;12.364;2023-12-20T00:18:34;6.27;;;5.10;;
15258;SDS011;34462;51.368;12.364;2023-12-20T00:21:03;6.57;;;4.83;;
15258;SDS011;34462;51.368;12.364;2023-12-20T00:23:31;6.30;;;5.17;;
15258;SDS011;34462;51.368;12.364;2023-12-20T00:26:00;8.80;;;5.37;;
15258;SDS011;34462;51.368;12.364;2023-12-20T00:28:29;5.60;;;5.03;;
15258;SDS011;34462;51.368;12.364;2023-12-20T00:30:57;5.43;;;4.77;;
15258;SDS011;34462;51.368;12.364;2023-12-20T00:33:27;5.27;;;4.70;;
15258;SDS011;34462;51.368;12.364;2023-12-20T00:35:56;5.90;;;4.60;;
15258;SDS011;34462;51.368;12.364;2023-12-20T00:38:24;5.67;;;4.77;;
15258;SDS011;34462;51.368;12.364;2023-12-20T00:40:53;6.47;;;5.30;;
15258;SDS011;34462;51.368;12.364;2023-12-20T00:43:21;5.37;;;4.87;;
15258;SDS011;34462;51.368;12.364;2023-12-20T00:45:50;4.97;;;4.47;;
15258;SDS011;34462;51.368;12.364;2023-12-20T00:48:19;5.87;;;4.10;;
15258;SDS011;34462;51.368;12.364;2023-12-20T00:50:49;4.70;;;4.30;;
15258;SDS011;34462;51.368;12.364;2023-12-20T00:53:17;4.97;;;4.43;;
15258;SDS011;34462;51.368;12.364;2023-12-20T00:55:46;4.43;;;4.03;;
15258;SDS011;34462;51.368;12.364;2023-12-20T00:58:14;4.77;;;4.10;;
15258;SDS011;34462;51.368;12.364;2023-12-20T01:00:43;4.47;;;4.07;;
15258;SDS011;34462;51.368;12.364;2023-12-20T01:03:13;5.30;;;4.20;;
15258;SDS011;34462;51.368;12.364;2023-12-20T01:05:41;4.70;;;3.63;;
15258;SDS011;34462;51.368;12.364;2023-12-20T01:08:11;4.40;;;4.00;;
15258;SDS011;34462;51.368;12.364;2023-12-20T01:10:40;4.97;;;3.80;;
15258;SDS011;34462;51.368;12.364;2023-12-20T01:13:09;4.60;;;3.57;;
15258;SDS011;34462;51.368;12.364;2023-12-20T01:15:37;4.27;;;3.70;;
15258;SDS011;34462;51.368;12.364;2023-12-20T01:18:06;4.53;;;3.90;;
15258;SDS011;34462;51.368;12.364;2023-12-20T01:20:35;4.03;;;3.63;;
15258;SDS011;34462;51.368;12.364;2023-12-20T01:23:03;4.13;;;3.53;;
15258;SDS011;34462;51.368;12.364;2023-12-20T01:25:33;3.80;;;3.40;;
15258;SDS011;34462;51.368;12.364;2023-12-20T01:28:02;3.97;;;3.57;;
15258;SDS011;34462;51.368;12.364;2023-12-20T01:30:30;4.77;;;3.67;;
15258;SDS011;34462;51.368;12.364;2023-12-20T01:32:59;3.77;;;3.40;;
15258;SDS011;34462;51.368;12.364;2023-12-20T01:35:28;3.43;;;3.03;;
15258;SDS011;34462;51.368;12.364;2023-12-20T01:37:57;4.10;;;3.30;;
15258;SDS011;34462;51.368;12.364;2023-12-20T01:40:25;3.00;;;2.70;;
15258;SDS011;34462;51.368;12.364;2023-12-20T01:43:01;3.07;;;2.80;;
15258;SDS011;34462;51.368;12.364;2023-12-20T01:45:34;3.50;;;3.20;;
15258;SDS011;34462;51.368;12.364;2023-12-20T01:48:03;3.30;;;3.00;;
15258;SDS011;34462;51.368;12.364;2023-12-20T01:50:34;3.33;;;2.97;;
15258;SDS011;34462;51.368;12.364;2023-12-20T01:53:04;3.20;;;2.90;;
15258;SDS011;34462;51.368;12.364;2023-12-20T01:55:35;3.00;;;2.70;;
15258;SDS011;34462;51.368;12.364;2023-12-20T01:58:08;3.23;;;2.60;;
15258;SDS011;34462;51.368;12.364;2023-12-20T02:00:38;3.17;;;2.87;;
15258;SDS011;34462;51.368;12.364;2023-12-20T02:03:07;3.20;;;2.90;;
15258;SDS011;34462;51.368;12.364;2023-12-20T02:05:36;3.23;;;2.50;;
15258;SDS011;34462;51.368;12.364;2023-12-20T02:08:05;3.77;;;3.23;;
15258;SDS011;34462;51.368;12.364;2023-12-20T02:10:34;2.67;;;2.47;;
15258;SDS011;34462;51.368;12.364;2023-12-20T02:13:03;3.23;;;2.87;;
15258;SDS011;34462;51.368;12.364;2023-12-20T02:15:33;3.33;;;3.03;;
15258;SDS011;34462;51.368;12.364;2023-12-20T02:18:03;3.40;;;2.70;;
15258;SDS011;34462;51.368;12.364;2023-12-20T02:20:32;3.00;;;2.60;;
15258;SDS011;34462;51.368;12.364;2023-12-20T02:23:02;2.97;;;2.70;;
15258;SDS011;34462;51.368;12.364;2023-12-20T02:25:31;2.80;;;2.50;;
15258;SDS011;34462;51.368;12.364;2023-12-20T02:27:59;3.00;;;2.70;;
15258;SDS011;34462;51.368;12.364;2023-12-20T02:30:28;3.03;;;2.70;;
15258;SDS011;34462;51.368;12.364;2023-12-20T02:32:56;4.23;;;3.10;;
15258;SDS011;34462;51.368;12.364;2023-12-20T02:35:26;2.93;;;2.60;;
15258;SDS011;34462;51.368;12.364;2023-12-20T02:37:55;3.30;;;3.00;;
15258;SDS011;34462;51.368;12.364;2023-12-20T02:40:25;3.20;;;2.83;;
15258;SDS011;34462;51.368;12.364;2023-12-20T02:42:53;3.70;;;3.20;;
15258;SDS011;34462;51.368;12.364;2023-12-20T02:45:22;3.93;;;2.83;;
15258;SDS011;34462;51.368;12.364;2023-12-20T02:47:50;3.27;;;2.80;;
15258;SDS011;34462;51.368;12.364;2023-12-20T02:50:19;3.33;;;3.00;;
15258;SDS011;34462;51.368;12.364;2023-12-20T02:52:47;3.23;;;2.93;;
15258;SDS011;34462;51.368;12.364;2023-12-20T02:55:16;3.47;;;3.17;;
15258;SDS011;34462;51.368;12.364;2023-12-20T02:57:46;3.00;;;2.70;;
15258;SDS011;34462;51.368;12.364;2023-12-20T03:00:15;4.63;;;3.27;;
15258;SDS011;34462;51.368;12.364;2023-12-20T03:02:43;3.70;;;3.40;;
15258;SDS011;34462;51.368;12.364;2023-12-20T03:05:12;3.33;;;3.03;;
15258;SDS011;34462;51.368;12.364;2023-12-20T03:07:41;3.17;;;2.87;;
15258;SDS011;34462;51.368;12.364;2023-12-20T03:10:10;3.60;;;2.87;;
15258;SDS011;34462;51.368;12.364;2023-12-20T03:12:50;3.40;;;3.10;;
15258;SDS011;34462;51.368;12.364;2023-12-20T03:15:19;4.63;;;3.70;;
15258;SDS011;34462;51.368;12.364;2023-12-20T03:17:47;3.90;;;3.50;;
15258;SDS011;34462;51.368;12.364;2023-12-20T03:20:16;4.20;;;3.80;;
15258;SDS011;34462;51.368;12.364;2023-12-20T03:22:45;3.57;;;3.27;;
15258;SDS011;34462;51.368;12.364;2023-12-20T03:25:13;5.00;;;3.20;;
15258;SDS011;34462;51.368;12.364;2023-12-20T03:27:42;3.53;;;2.87;;
15258;SDS011;34462;51.368;12.364;2023-12-20T03:30:12;3.87;;;3.57;;
15258;SDS011;34462;51.368;12.364;2023-12-20T03:32:41;3.40;;;3.10;;
15258;SDS011;34462;51.368;12.364;2023-12-20T03:35:10;2.90;;;2.60;;
15258;SDS011;34462;51.368;12.364;2023-12-20T03:37:38;3.50;;;3.20;;
15258;SDS011;34462;51.368;12.364;2023-12-20T03:40:07;3.40;;;3.00;;
15258;SDS011;34462;51.368;12.364;2023-12-20T03:42:36;3.20;;;2.90;;
15258;SDS011;34462;51.368;12.364;2023-12-20T03:45:05;3.53;;;3.13;;
15258;SDS011;34462;51.368;12.364;2023-12-20T03:47:36;3.40;;;2.93;;
15258;SDS011;34462;51.368;12.364;2023-12-20T03:50:05;3.57;;;3.27;;
15258;SDS011;34462;51.368;12.364;2023-12-20T03:52:34;3.57;;;3.20;;
15258;SDS011;34462;51.368;12.364;2023-12-20T03:55:03;3.20;;;2.90;;
15258;SDS011;34462;51.368;12.364;2023-12-20T03:57:32;3.50;;;3.20;;
15258;SDS011;34462;51.368;12.364;2023-12-20T04:00:00;3.73;;;3.33;;
15258;SDS011;34462;51.368;12.364;2023-12-20T04:02:29;3.73;;;3.43;;
15258;SDS011;34462;51.368;12.364;2023-12-20T04:04:59;4.77;;;4.27;;
15258;SDS011;34462;51.368;12.364;2023-12-20T04:07:27;4.93;;;4.43;;
15258;SDS011;34462;51.368;12.364;2023-12-20T04:09:56;4.50;;;4.10;;
15258;SDS011;34462;51.368;12.364;2023-12-20T04:12:25;5.70;;;5.10;;
15258;SDS011;34462;51.368;12.364;2023-12-20T04:14:53;6.00;;;4.63;;
15258;SDS011;34462;51.368;12.364;2023-12-20T04:17:22;5.33;;;4.83;;
15258;SDS011;34462;51.368;12.364;2023-12-20T04:19:50;5.93;;;5.00;;
15258;SDS011;34462;51.368;12.364;2023-12-20T04:22:21;5.63;;;4.70;;
15258;SDS011;34462;51.368;12.364;2023-12-20T04:24:50;6.33;;;4.97;;
15258;SDS011;34462;51.368;12.364;2023-12-20T04:27:18;5.43;;;4.57;;
15258;SDS011;34462;51.368;12.364;2023-12-20T04:29:47;6.20;;;4.43;;
15258;SDS011;34462;51.368;12.364;2023-12-20T04:32:15;5.07;;;4.30;;
15258;SDS011;34462;51.368;12.364;2023-12-20T04:34:44;5.50;;;4.43;;
15258;SDS011;34462;51.368;12.364;2023-12-20T04:37:12;5.97;;;4.50;;
15258;SDS011;34462;51.368;12.364;2023-12-20T04:39:42;6.20;;;4.70;;
15258;SDS011;34462;51.368;12.364;2023-12-20T04:42:11;7.43;;;5.47;;
15258;SDS011;34462;51.368;12.364;2023-12-20T04:44:39;9.87;;;8.00;;
15258;SDS011;34462;51.368;12.364;2023-12-20T04:47:10;5.53;;;4.83;;
15258;SDS011;34462;51.368;12.364;2023-12-20T04:49:38;5.83;;;5.03;;
15258;SDS011;34462;51.368;12.364;2023-12-20T04:52:07;5.47;;;4.60;;
15258;SDS011;34462;51.368;12.364;2023-12-20T04:54:35;4.47;;;4.07;;
15258;SDS011;34462;51.368;12.364;2023-12-20T04:57:09;4.90;;;4.30;;
15258;SDS011;34462;51.368;12.364;2023-12-20T04:59:37;5.33;;;4.20;;
15258;SDS011;34462;51.368;12.364;2023-12-20T05:02:06;4.63;;;4.03;;
15258;SDS011;34462;51.368;12.364;2023-12-20T05:04:34;5.17;;;4.30;;
15258;SDS011;34462;51.368;12.364;2023-12-20T05:07:03;6.13;;;4.73;;
15258;SDS011;34462;51.368;12.364;2023-12-20T05:09:32;5.37;;;4.30;;
15258;SDS011;34462;51.368;12.364;2023-12-20T05:12:00;5.00;;;4.40;;
15258;SDS011;34462;51.368;12.364;2023-12-20T05:14:30;5.20;;;4.37;;
15258;SDS011;34462;51.368;12.364;2023-12-20T05:16:59;5.27;;;4.17;;
15258;SDS011;34462;51.368;12.364;2023-12-20T05:19:27;7.90;;;4.33;;
15258;SDS011;34462;51.368;12.364;2023-12-20T05:21:56;5.47;;;4.23;;
15258;SDS011;34462;51.368;12.364;2023-12-20T05:24:24;5.13;;;4.37;;
15258;SDS011;34462;51.368;12.364;2023-12-20T05:26:53;5.33;;;4.47;;
15258;SDS011;34462;51.368;12.364;2023-12-20T05:29:22;5.90;;;5.00;;
15258;SDS011;34462;51.368;12.364;2023-12-20T05:31:52;5.57;;;5.03;;
15258;SDS011;34462;51.368;12.364;2023-12-20T05:34:21;6.10;;;4.63;;
15258;SDS011;34462;51.368;12.364;2023-12-20T05:36:49;5.47;;;4.50;;
15258;SDS011;34462;51.368;12.364;2023-12-20T05:39:18;6.17;;;4.43;;
15258;SDS011;34462;51.368;12.364;2023-12-20T05:41:46;4.83;;;4.30;;
15258;SDS011;34462;51.368;12.364;2023-12-20T05:44:15;4.73;;;4.23;;
15258;SDS011;34462;51.368;12.364;2023-12-20T05:46:43;5.80;;;4.63;;
15258;SDS011;34462;51.368;12.364;2023-12-20T05:49:13;4.13;;;3.73;;
15258;SDS011;34462;51.368;12.364;2023-12-20T05:51:42;5.53;;;4.73;;
15258;SDS011;34462;51.368;12.364;2023-12-20T05:54:10;5.73;;;4.57;;
15258;SDS011;34462;51.368;12.364;2023-12-20T05:56:39;5.90;;;5.30;;
15258;SDS011;34462;51.368;12.364;2023-12-20T05:59:08;5.20;;;4.70;;
15258;SDS011;34462;51.368;12.364;2023-12-20T06:01:36;4.90;;;4.10;;
15258;SDS011;34462;51.368;12.364;2023-12-20T06:04:05;6.10;;;5.50;;
15258;SDS011;34462;51.368;12.364;2023-12-20T06:06:35;5.00;;;4.50;;
15258;SDS011;34462;51.368;12.364;2023-12-20T06:09:09;4.63;;;4.13;;
15258;SDS011;34462;51.368;12.364;2023-12-20T06:11:37;4.00;;;3.60;;
15258;SDS011;34462;51.368;12.364;2023-12-20T06:14:06;6.30;;;5.30;;
15258;SDS011;34462;51.368;12.364;2023-12-20T06:16:34;5.80;;;5.27;;
15258;SDS011;34462;51.368;12.364;2023-12-20T06:19:03;5.23;;;4.73;;
15258;SDS011;34462;51.368;12.364;2023-12-20T06:21:32;6.07;;;5.13;;
15258;SDS011;34462;51.368;12.364;2023-12-20T06:24:02;6.00;;;5.40;;
15258;SDS011;34462;51.368;12.364;2023-12-20T06:26:30;6.07;;;5.40;;
15258;SDS011;34462;51.368;12.364;2023-12-20T06:28:59;6.83;;;4.87;;
15258;SDS011;34462;51.368;12.364;2023-12-20T06:31:27;5.63;;;4.53;;
15258;SDS011;34462;51.368;12.364;2023-12-20T06:33:56;6.90;;;5.40;;
15258;SDS011;34462;51.368;12.364;2023-12-20T06:36:26;6.47;;;5.70;;
15258;SDS011;34462;51.368;12.364;2023-12-20T06:38:56;8.20;;;5.70;;
15258;SDS011;34462;51.368;12.364;2023-12-20T06:41:24;7.10;;;6.37;;
15258;SDS011;34462;51.368;12.364;2023-12-20T06:43:53;8.87;;;6.33;;
15258;SDS011;34462;51.368;12.364;2023-12-20T06:46:21;8.10;;;6.60;;
15258;SDS011;34462;51.368;12.364;2023-12-20T06:48:50;8.10;;;6.90;;
15258;SDS011;34462;51.368;12.364;2023-12-20T06:51:18;7.23;;;5.80;;
15258;SDS011;34462;51.368;12.364;2023-12-20T06:53:47;7.23;;;6.30;;
15258;SDS011;34462;51.368;12.364;2023-12-20T06:56:16;6.50;;;5.43;;
15258;SDS011;34462;51.368;12.364;2023-12-20T06:58:45;5.87;;;5.07;;
15258;SDS011;34462;51.368;12.364;2023-12-20T07:01:14;6.23;;;5.10;;
15258;SDS011;34462;51.368;12.364;2023-12-20T07:03:43;5.00;;;4.10;;
15258;SDS011;34462;51.368;12.364;2023-12-20T07:06:11;6.03;;;4.07;;
15258;SDS011;34462;51.368;12.364;2023-12-20T07:08:42;4.80;;;3.80;;
15258;SDS011;34462;51.368;12.364;2023-12-20T07:11:11;4.50;;;4.07;;
15258;SDS011;34462;51.368;12.364;2023-12-20T07:13:41;4.73;;;3.87;;
15258;SDS011;34462;51.368;12.364;2023-12-20T07:16:10;5.27;;;3.90;;
15258;SDS011;34462;51.368;12.364;2023-12-20T07:18:39;5.23;;;4.37;;
15258;SDS011;34462;51.368;12.364;2023-12-20T07:21:08;6.50;;;3.93;;
15258;SDS011;34462;51.368;12.364;2023-12-20T07:23:36;4.47;;;3.80;;
15258;SDS011;34462;51.368;12.364;2023-12-20T07:26:05;8.10;;;5.40;;
15258;SDS011;34462;51.368;12.364;2023-12-20T07:28:33;6.67;;;4.70;;
15258;SDS011;34462;51.368;12.364;2023-12-20T07:31:03;4.27;;;3.57;;
15258;SDS011;34462;51.368;12.364;2023-12-20T07:33:32;4.00;;;3.27;;
15258;SDS011;34462;51.368;12.364;2023-12-20T07:36:05;4.20;;;3.30;;
15258;SDS011;34462;51.368;12.364;2023-12-20T07:38:35;4.03;;;2.97;;
15258;SDS011;34462;51.368;12.364;2023-12-20T07:41:03;4.17;;;2.83;;
15258;SDS011;34462;51.368;12.364;2023-12-20T07:43:34;5.03;;;3.23;;
15258;SDS011;34462;51.368;12.364;2023-12-20T07:46:07;5.77;;;3.30;;
15258;SDS011;34462;51.368;12.364;2023-12-20T07:48:36;5.07;;;2.77;;
15258;SDS011;34462;51.368;12.364;2023-12-20T07:51:08;4.77;;;2.63;;
15258;SDS011;34462;51.368;12.364;2023-12-20T07:53:37;5.67;;;2.63;;
15258;SDS011;34462;51.368;12.364;2023-12-20T07:56:13;4.23;;;2.93;;
15258;SDS011;34462;51.368;12.364;2023-12-20T07:58:42;3.00;;;2.00;;
15258;SDS011;34462;51.368;12.364;2023-12-20T08:01:20;3.17;;;2.37;;
15258;SDS011;34462;51.368;12.364;2023-12-20T08:03:49;4.93;;;1.90;;
15258;SDS011;34462;51.368;12.364;2023-12-20T08:06:18;2.97;;;1.80;;
15258;SDS011;34462;51.368;12.364;2023-12-20T08:08:47;3.73;;;2.00;;
15258;SDS011;34462;51.368;12.364;2023-12-20T08:11:27;3.00;;;1.87;;
15258;SDS011;34462;51.368;12.364;2023-12-20T08:13:55;5.23;;;1.70;;
15258;SDS011;34462;51.368;12.364;2023-12-20T08:16:26;2.40;;;1.83;;
15258;SDS011;34462;51.368;12.364;2023-12-20T08:18:54;4.13;;;2.10;;
15258;SDS011;34462;51.368;12.364;2023-12-20T08:21:23;2.80;;;1.87;;
15258;SDS011;34462;51.368;12.364;2023-12-20T08:23:51;3.43;;;2.10;;
15258;SDS011;34462;51.368;12.364;2023-12-20T08:26:20;2.80;;;1.87;;
15258;SDS011;34462;51.368;12.364;2023-12-20T08:28:50;2.43;;;1.50;;
15258;SDS011;34462;51.368;12.364;2023-12-20T08:31:19;5.40;;;1.80;;
15258;SDS011;34462;51.368;12.364;2023-12-20T08:33:49;3.47;;;1.90;;
15258;SDS011;34462;51.368;12.364;2023-12-20T08:36:19;6.87;;;1.87;;
15258;SDS011;34462;51.368;12.364;2023-12-20T08:38:50;5.23;;;1.90;;
15258;SDS011;34462;51.368;12.364;2023-12-20T08:41:18;3.70;;;1.93;;
15258;SDS011;34462;51.368;12.364;2023-12-20T08:43:47;3.10;;;1.90;;
15258;SDS011;34462;51.368;12.364;2023-12-20T08:46:16;2.43;;;1.90;;
15258;SDS011;34462;51.368;12.364;2023-12-20T08:48:44;3.10;;;1.60;;
15258;SDS011;34462;51.368;12.364;2023-12-20T08:51:15;2.37;;;1.60;;
15258;SDS011;34462;51.368;12.364;2023-12-20T08:53:43;2.77;;;1.80;;
15258;SDS011;34462;51.368;12.364;2023-12-20T08:56:13;3.63;;;1.90;;
15258;SDS011;34462;51.368;12.364;2023-12-20T08:58:43;3.33;;;2.53;;
15258;SDS011;34462;51.368;12.364;2023-12-20T09:01:12;3.33;;;2.10;;
15258;SDS011;34462;51.368;12.364;2023-12-20T09:03:41;7.13;;;2.43;;
15258;SDS011;34462;51.368;12.364;2023-12-20T09:06:10;3.13;;;2.10;;
15258;SDS011;34462;51.368;12.364;2023-12-20T09:08:40;4.80;;;2.00;;
15258;SDS011;34462;51.368;12.364;2023-12-20T09:11:08;5.23;;;2.53;;
15258;SDS011;34462;51.368;12.364;2023-12-20T09:13:38;4.77;;;2.33;;
15258;SDS011;34462;51.368;12.364;2023-12-20T09:16:07;3.57;;;2.30;;
15258;SDS011;34462;51.368;12.364;2023-12-20T09:18:36;3.80;;;2.10;;
15258;SDS011;34462;51.368;12.364;2023-12-20T09:21:04;4.77;;;2.17;;
15258;SDS011;34462;51.368;12.364;2023-12-20T09:23:33;4.07;;;2.20;;
15258;SDS011;34462;51.368;12.364;2023-12-20T09:26:04;3.73;;;2.20;;
15258;SDS011;34462;51.368;12.364;2023-12-20T09:28:32;3.90;;;2.07;;
15258;SDS011;34462;51.368;12.364;2023-12-20T09:31:04;5.97;;;2.50;;
15258;SDS011;34462;51.368;12.364;2023-12-20T09:33:33;6.10;;;1.80;;
15258;SDS011;34462;51.368;12.364;2023-12-20T09:36:02;4.27;;;2.10;;
15258;SDS011;34462;51.368;12.364;2023-12-20T09:38:31;4.07;;;2.20;;
15258;SDS011;34462;51.368;12.364;2023-12-20T09:40:59;3.53;;;2.03;;
15258;SDS011;34462;51.368;12.364;2023-12-20T09:43:31;4.57;;;2.30;;
15258;SDS011;34462;51.368;12.364;2023-12-20T09:46:05;3.57;;;2.50;;
15258;SDS011;34462;51.368;12.364;2023-12-20T09:48:34;3.83;;;2.43;;
15258;SDS011;34462;51.368;12.364;2023-12-20T09:51:04;4.10;;;2.23;;
15258;SDS011;34462;51.368;12.364;2023-12-20T09:53:33;3.70;;;2.50;;
15258;SDS011;34462;51.368;12.364;2023-12-20T09:56:04;3.33;;;2.40;;
15258;SDS011;34462;51.368;12.364;2023-12-20T09:58:37;4.97;;;2.30;;
15258;SDS011;34462;51.368;12.364;2023-12-20T10:01:06;4.23;;;2.37;;
15258;SDS011;34462;51.368;12.364;2023-12-20T10:03:36;3.87;;;2.60;;
15258;SDS011;34462;51.368;12.364;2023-12-20T10:06:08;4.43;;;2.30;;
15258;SDS011;34462;51.368;12.364;2023-12-20T10:08:38;3.67;;;2.80;;
15258;SDS011;34462;51.368;12.364;2023-12-20T10:11:06;4.83;;;2.77;;
15258;SDS011;34462;51.368;12.364;2023-12-20T10:13:38;3.20;;;2.43;;
15258;SDS011;34462;51.368;12.364;2023-12-20T10:16:08;5.60;;;2.67;;
15258;SDS011;34462;51.368;12.364;2023-12-20T10:18:37;5.93;;;2.70;;
15258;SDS011;34462;51.368;12.364;2023-12-20T10:21:06;6.23;;;2.60;;
15258;SDS011;34462;51.368;12.364;2023-12-20T10:23:36;4.37;;;2.47;;
15258;SDS011;34462;51.368;12.364;2023-12-20T10:26:06;6.83;;;2.50;;
15258;SDS011;34462;51.368;12.364;2023-12-20T10:28:34;5.90;;;2.70;;
15258;SDS011;34462;51.368;12.364;2023-12-20T10:31:05;5.17;;;3.10;;
15258;SDS011;34462;51.368;12.364;2023-12-20T10:33:34;4.37;;;2.87;;
15258;SDS011;34462;51.368;12.364;2023-12-20T10:36:02;3.03;;;2.20;;
15258;SDS011;34462;51.368;12.364;2023-12-20T10:38:32;4.53;;;2.40;;
15258;SDS011;34462;51.368;12.364;2023-12-20T10:41:01;3.37;;;2.43;;
15258;SDS011;34462;51.368;12.364;2023-12-20T10:43:33;7.27;;;2.13;;
15258;SDS011;34462;51.368;12.364;2023-12-20T10:46:05;6.47;;;2.43;;
15258;SDS011;34462;51.368;12.364;2023-12-20T10:48:34;6.13;;;2.20;;
15258;SDS011;34462;51.368;12.364;2023-12-20T10:51:04;5.73;;;2.50;;
15258;SDS011;34462;51.368;12.364;2023-12-20T10:53:33;4.00;;;2.40;;
15258;SDS011;34462;51.368;12.364;2023-12-20T10:56:04;4.27;;;2.10;;
15258;SDS011;34462;51.368;12.364;2023-12-20T10:58:35;5.07;;;2.10;;
15258;SDS011;34462;51.368;12.364;2023-12-20T11:01:08;6.20;;;2.10;;
15258;SDS011;34462;51.368;12.364;2023-12-20T11:03:39;5.10;;;2.20;;
15258;SDS011;34462;51.368;12.364;2023-12-20T11:06:13;5.23;;;2.07;;
15258;SDS011;34462;51.368;12.364;2023-12-20T11:08:55;3.27;;;2.00;;
15258;SDS011;34462;51.368;12.364;2023-12-20T11:11:38;5.13;;;2.07;;
15258;SDS011;34462;51.368;12.364;2023-12-20T11:14:14;5.60;;;2.03;;
15258;SDS011;34462;51.368;12.364;2023-12-20T11:16:47;5.47;;;1.80;;
15258;SDS011;34462;51.368;12.364;2023-12-20T11:19:21;2.40;;;1.53;;
15258;SDS011;34462;51.368;12.364;2023-12-20T11:21:49;4.03;;;1.80;;
15258;SDS011;34462;51.368;12.364;2023-12-20T11:24:21;3.73;;;1.87;;
15258;SDS011;34462;51.368;12.364;2023-12-20T11:26:50;4.87;;;1.90;;
15258;SDS011;34462;51.368;12.364;2023-12-20T11:29:30;4.67;;;2.20;;
15258;SDS011;34462;51.368;12.364;2023-12-20T11:32:03;4.73;;;2.33;;
15258;SDS011;34462;51.368;12.364;2023-12-20T11:34:53;5.03;;;1.90;;
15258;SDS011;34462;51.368;12.364;2023-12-20T11:37:25;4.83;;;1.93;;
15258;SDS011;34462;51.368;12.364;2023-12-20T11:40:00;4.27;;;1.70;;
15258;SDS011;34462;51.368;12.364;2023-12-20T11:42:32;3.87;;;1.77;;
15258;SDS011;34462;51.368;12.364;2023-12-20T11:45:03;4.60;;;2.10;;
15258;SDS011;34462;51.368;12.364;2023-12-20T11:47:34;4.47;;;2.13;;
15258;SDS011;34462;51.368;12.364;2023-12-20T11:50:03;2.87;;;1.80;;
15258;SDS011;34462;51.368;12.364;2023-12-20T11:52:33;4.70;;;2.10;;
15258;SDS011;34462;51.368;12.364;2023-12-20T11:55:02;4.60;;;2.10;;
15258;SDS011;34462;51.368;12.364;2023-12-20T11:57:32;6.53;;;2.20;;
15258;SDS011;34462;51.368;12.364;2023-12-20T12:00:01;3.57;;;2.00;;
15258;SDS011;34462;51.368;12.364;2023-12-20T12:02:30;4.33;;;2.30;;
15258;SDS011;34462;51.368;12.364;2023-12-20T12:05:00;4.20;;;1.80;;
15258;SDS011;34462;51.368;12.364;2023-12-20T12:07:31;7.00;;;2.10;;
15258;SDS011;34462;51.368;12.364;2023-12-20T12:10:00;3.17;;;1.80;;
15258;SDS011;34462;51.368;12.364;2023-12-20T12:12:30;3.60;;;1.90;;
15258;SDS011;34462;51.368;12.364;2023-12-20T12:14:59;5.97;;;1.97;;
15258;SDS011;34462;51.368;12.364;2023-12-20T12:17:29;5.10;;;1.60;;
15258;SDS011;34462;51.368;12.364;2023-12-20T12:20:03;4.00;;;1.70;;
15258;SDS011;34462;51.368;12.364;2023-12-20T12:22:33;3.50;;;1.97;;
15258;SDS011;34462;51.368;12.364;2023-12-20T12:25:09;3.50;;;1.70;;
15258;SDS011;34462;51.368;12.364;2023-12-20T12:27:39;4.73;;;1.73;;
15258;SDS011;34462;51.368;12.364;2023-12-20T12:30:09;4.03;;;1.90;;
15258;SDS011;34462;51.368;12.364;2023-12-20T12:32:39;2.60;;;1.87;;
15258;SDS011;34462;51.368;12.364;2023-12-20T12:35:16;4.57;;;2.17;;
15258;SDS011;34462;51.368;12.364;2023-12-20T12:37:45;4.33;;;2.00;;
15258;SDS011;34462;51.368;12.364;2023-12-20T12:40:14;2.53;;;1.57;;
15258;SDS011;34462;51.368;12.364;2023-12-20T12:42:44;3.97;;;2.07;;
15258;SDS011;34462;51.368;12.364;2023-12-20T12:45:14;6.37;;;2.10;;
15258;SDS011;34462;51.368;12.364;2023-12-20T12:47:42;2.47;;;1.73;;
15258;SDS011;34462;51.368;12.364;2023-12-20T12:50:12;2.43;;;1.70;;
15258;SDS011;34462;51.368;12.364;2023-12-20T12:52:43;5.83;;;1.87;;
15258;SDS011;34462;51.368;12.364;2023-12-20T12:55:11;3.47;;;2.00;;
15258;SDS011;34462;51.368;12.364;2023-12-20T12:57:40;3.17;;;2.00;;
15258;SDS011;34462;51.368;12.364;2023-12-20T13:00:10;3.43;;;2.27;;
15258;SDS011;34462;51.368;12.364;2023-12-20T13:02:40;3.60;;;2.07;;
15258;SDS011;34462;51.368;12.364;2023-12-20T13:05:08;5.00;;;2.30;;
15258;SDS011;34462;51.368;12.364;2023-12-20T13:07:37;6.73;;;2.40;;
15258;SDS011;34462;51.368;12.364;2023-12-20T13:10:08;3.80;;;1.90;;
15258;SDS011;34462;51.368;12.364;2023-12-20T13:12:37;5.17;;;2.07;;
15258;SDS011;34462;51.368;12.364;2023-12-20T13:15:06;7.43;;;2.50;;
15258;SDS011;34462;51.368;12.364;2023-12-20T13:17:35;3.67;;;2.17;;
15258;SDS011;34462;51.368;12.364;2023-12-20T13:20:05;2.60;;;1.97;;
15258;SDS011;34462;51.368;12.364;2023-12-20T13:22:34;3.70;;;2.07;;
15258;SDS011;34462;51.368;12.364;2023-12-20T13:25:03;3.90;;;2.40;;
15258;SDS011;34462;51.368;12.364;2023-12-20T13:27:34;9.17;;;2.37;;
15258;SDS011;34462;51.368;12.364;2023-12-20T13:30:03;3.10;;;2.00;;
15258;SDS011;34462;51.368;12.364;2023-12-20T13:32:32;3.50;;;1.90;;
15258;SDS011;34462;51.368;12.364;2023-12-20T13:35:01;5.17;;;1.90;;
15258;SDS011;34462;51.368;12.364;2023-12-20T13:37:30;4.23;;;2.10;;
15258;SDS011;34462;51.368;12.364;2023-12-20T13:39:59;4.67;;;2.17;;
15258;SDS011;34462;51.368;12.364;2023-12-20T13:42:28;4.80;;;1.90;;
15258;SDS011;34462;51.368;12.364;2023-12-20T13:44:58;3.20;;;2.00;;
15258;SDS011;34462;51.368;12.364;2023-12-20T13:47:26;3.40;;;2.07;;
15258;SDS011;34462;51.368;12.364;2023-12-20T13:49:55;2.80;;;1.73;;
15258;SDS011;34462;51.368;12.364;2023-12-20T13:52:24;2.97;;;1.83;;
15258;SDS011;34462;51.368;12.364;2023-12-20T13:54:53;2.77;;;1.87;;
15258;SDS011;34462;51.368;12.364;2023-12-20T13:57:21;3.73;;;2.17;;
15258;SDS011;34462;51.368;12.364;2023-12-20T14:00:11;3.67;;;2.03;;
15258;SDS011;34462;51.368;12.364;2023-12-20T14:02:41;3.33;;;1.67;;
15258;SDS011;34462;51.368;12.364;2023-12-20T14:05:10;3.30;;;1.70;;
15258;SDS011;34462;51.368;12.364;2023-12-20T14:07:40;4.50;;;1.60;;
15258;SDS011;34462;51.368;12.364;2023-12-20T14:10:11;3.33;;;1.83;;
15258;SDS011;34462;51.368;12.364;2023-12-20T14:12:40;2.77;;;1.77;;
15258;SDS011;34462;51.368;12.364;2023-12-20T14:15:11;2.50;;;1.70;;
15258;SDS011;34462;51.368;12.364;2023-12-20T14:17:40;2.03;;;1.60;;
15258;SDS011;34462;51.368;12.364;2023-12-20T14:20:09;3.03;;;1.93;;
15258;SDS011;34462;51.368;12.364;2023-12-20T14:22:39;4.17;;;2.00;;
15258;SDS011;34462;51.368;12.364;2023-12-20T14:25:11;2.37;;;1.73;;
15258;SDS011;34462;51.368;12.364;2023-12-20T14:27:40;3.17;;;1.60;;
15258;SDS011;34462;51.368;12.364;2023-12-20T14:30:12;2.23;;;1.50;;
15258;SDS011;34462;51.368;12.364;2023-12-20T14:32:43;2.77;;;2.00;;
15258;SDS011;34462;51.368;12.364;2023-12-20T14:35:12;3.37;;;1.90;;
15258;SDS011;34462;51.368;12.364;2023-12-20T14:37:41;3.07;;;1.90;;
15258;SDS011;34462;51.368;12.364;2023-12-20T14:40:11;2.13;;;1.60;;
15258;SDS011;34462;51.368;12.364;2023-12-20T14:42:42;3.10;;;1.67;;
15258;SDS011;34462;51.368;12.364;2023-12-20T14:45:13;3.80;;;1.70;;
15258;SDS011;34462;51.368;12.364;2023-12-20T14:47:42;2.33;;;1.47;;